TimeCST,TemperatureF,Dew PointF,Humidity,Sea Level PressureIn,VisibilityMPH,Wind Direction,Wind SpeedMPH,Gust SpeedMPH,PrecipitationIn,Events,Conditions,WindDirDegrees,DateUTC
12:58 AM,50.0,33.1,52,30.20,9.0,Calm,Calm,-,N/A,,Clear,0,2013-03-09 06:58:00
1:58 AM,48.0,35.1,61,30.19,10.0,Calm,Calm,-,N/A,,Clear,0,2013-03-09 07:58:00
2:58 AM,46.0,39.0,76,30.19,10.0,Calm,Calm,-,N/A,,Clear,0,2013-03-09 08:58:00
3:58 AM,48.9,35.1,59,30.20,10.0,Calm,Calm,-,N/A,,Clear,0,2013-03-09 09:58:00
4:58 AM,46.9,35.1,63,30.21,9.0,ESE,4.6,-,N/A,,Clear,110,2013-03-09 10:58:00
5:58 AM,46.9,35.1,63,30.22,9.0,Calm,Calm,-,N/A,,Clear,0,2013-03-09 11:58:00
6:58 AM,48.0,37.0,66,30.24,7.0,Calm,Calm,-,N/A,,Clear,0,2013-03-09 12:58:00
7:58 AM,51.1,37.9,61,30.25,7.0,Variable,3.5,-,N/A,,Clear,0,2013-03-09 13:58:00
8:58 AM,59.0,41.0,51,30.27,10.0,Variable,3.5,-,N/A,,Clear,0,2013-03-09 14:58:00
9:58 AM,66.0,37.9,36,30.26,10.0,SSE,8.1,-,N/A,,Clear,150,2013-03-09 15:58:00
10:58 AM,68.0,37.9,33,30.24,10.0,Variable,6.9,-,N/A,,Clear,0,2013-03-09 16:58:00
11:58 AM,69.1,39.9,35,30.22,10.0,Variable,5.8,-,N/A,,Clear,0,2013-03-09 17:58:00
12:58 PM,71.1,39.0,31,30.20,10.0,SE,9.2,-,N/A,,Clear,130,2013-03-09 18:58:00
1:58 PM,71.1,37.9,30,30.17,10.0,Variable,3.5,-,N/A,,Clear,0,2013-03-09 19:58:00
2:58 PM,71.1,37.0,29,30.18,10.0,SE,5.8,-,N/A,,Clear,140,2013-03-09 20:58:00
3:58 PM,70.0,37.9,31,30.17,10.0,South,8.1,-,N/A,,Clear,170,2013-03-09 21:58:00
4:58 PM,68.0,39.0,35,30.18,10.0,South,4.6,-,N/A,,Clear,180,2013-03-09 22:58:00
5:58 PM,63.0,46.9,56,30.18,10.0,SW,3.5,-,N/A,,Clear,220,2013-03-09 23:58:00
6:58 PM,57.9,46.9,67,30.18,10.0,South,3.5,-,N/A,,Clear,190,2013-03-10 00:58:00
7:58 PM,55.0,45.0,69,30.17,10.0,South,4.6,-,N/A,,Clear,170,2013-03-10 01:58:00
8:58 PM,57.0,45.0,64,30.15,10.0,SSE,5.8,-,N/A,,Clear,150,2013-03-10 02:58:00
9:58 PM,57.0,43.0,59,30.15,10.0,SE,3.5,-,N/A,,Clear,140,2013-03-10 03:58:00
10:58 PM,54.0,42.1,64,30.14,10.0,Calm,Calm,-,N/A,,Clear,0,2013-03-10 04:58:00
11:58 PM,53.1,41.0,64,30.12,10.0,SSE,3.5,-,N/A,,Clear,150,2013-03-10 05:58:00